Lake of the Forest, Kansas
Current Conditions -  °F | °C
As of 10:53 AM on Saturday 20 Dec 2014 (Local Time) from KIXD Reporting Station
Clear Clear  
Wind Chill: 33°   Ceiling: Unl
Heat Index: 40°   Visibility: 9mi
Dew Point: 35°   Wind: 10mph
Humidity: 83%   Direction: 190°S
Pressure: 30.17"   Gusts: NA
Location:  39.0619°N, 94.8881°W
Report Text: KIXD 201653Z 19009KT 9SM CLR 04/02 A3017 RMK AO2 SLP224 T00440017
Loading
Personal Weather Stations






























Interactive Weather Map New forecast layout! Learn more

10-Day Weather Forecast

Advertisements
Track Severe Weather on mobile